• Join FlightAware (Why Join?)
  • Login
  • US Flag 
05:00AM EDT


 

Airport Tracker/Info


-or-


 

Live Flight TrackerFlight Track Log ✈ CTL312 ✈ 23-Jul-2013 ✈ KBKL - KPTK

Flight Track Log - Related Links

Times and Time Zones

All times are in EDT time to prevent confusion due to time zone crossing. See the CTL312 flight status page for this flight to view local times or setup timezone preferences in your user account.

Time Position Orientation Groundspeed Altitude Reporting Facility
EDT Latitude Longitude Course Direction KTS MPH feet Rate Location/Type
09:44PM 41.5336 -81.6789 327° Northwest 121 139 1,100  Level Cleveland Center
09:45PM 41.5667 -81.7072 327° Northwest 145 167 2,000 780 Climbing Cleveland Center
09:46PM 41.5872 -81.7436 307° West 141 162 2,700 720 Climbing Cleveland Center
09:47PM 41.6097 -81.7828 308° West 141 162 3,400 660 Climbing Cleveland Center
09:48PM 41.6383 -81.8250 312° West 133 153 4,100 600 Climbing Cleveland Center
09:49PM 41.6528 -81.8475 311° West 141 162 4,500 540 Climbing Cleveland Center
09:50PM 41.6794 -81.8842 314° West 141 162 5,100 600 Climbing Cleveland Center
09:51PM 41.7042 -81.9181 314° West 136 157 5,700 480 Climbing Cleveland Center
09:52PM 41.7286 -81.9575 310° West 136 157 6,100 180 Climbing Cleveland Center
09:53PM 41.7575 -81.9972 314° West 136 157 6,100 -60 Level Cleveland Center
09:54PM 41.7839 -82.0422 308° West 143 165 6,000 -60 Descending Cleveland Center
09:55PM 41.8106 -82.0847 310° West 150 173 6,000  Level Cleveland Center
09:56PM 41.8392 -82.1272 312° West 155 178 6,000  Level Cleveland Center
09:57PM 41.8675 -82.1725 310° West 155 178 6,000  Level Cleveland Center
09:58PM 41.8961 -82.2150 312° West 160 184 6,000  Level Cleveland Center
09:59PM 41.9206 -82.2603 306° West 160 184 6,000  Level Cleveland Center
10:00PM 41.9450 -82.2972 312° West 155 178 6,000 -120 Level Cleveland Center
10:00PM 41.9675 -82.3286 314° West 148 170 5,900  Descending Cleveland Center
10:02PM 42.0019 -82.3883 308° West 155 178 6,100  Climbing Cleveland Center
10:02PM 42.0164 -82.4108 311° West 144 166 5,900 -120 Descending Cleveland Center
10:03PM 42.0469 -82.4483 318° Northwest 149 171 6,000  Climbing Cleveland Center
10:04PM 42.0753 -82.4967 308° West 148 170 5,900 -60 Descending Cleveland Center
10:05PM 42.1058 -82.5367 316° Northwest 150 173 5,900  Level Cleveland Center
10:06PM 42.1322 -82.5822 308° West 153 176 6,000  Climbing Cleveland Center
10:07PM 42.1606 -82.6253 312° West 153 176 5,900  Descending Cleveland Center
10:09PM 42.1950 -82.6794 311° West 160 184 6,000  Climbing Cleveland Center
10:09PM 42.2214 -82.7197 312° West 156 180 5,900 -120 Descending Cleveland Center
10:10PM 42.2478 -82.7600 312° West 159 183 5,800 -360 Descending Cleveland Center
10:11PM 42.2781 -82.8086 310° West 166 191 5,300 -600 Descending Cleveland Center
10:12PM 42.3064 -82.8544 310° West 169 194 4,700 -480 Descending Cleveland Center
10:13PM 42.3367 -82.9033 310° West 167 192 4,400 -420 Descending Cleveland Center
10:14PM 42.3650 -82.9494 310° West 170 196 3,900 -300 Descending Cleveland Center
10:15PM 42.3953 -82.9983 310° West 160 184 3,800 -60 Descending Cleveland Center
10:16PM 42.4256 -83.0389 315° West 157 181 3,800 -60 Level Cleveland Center
10:17PM 42.4558 -83.0906 308° West 153 176 3,700 -300 Descending Cleveland Center
10:18PM 42.4842 -83.1311 313° West 163 188 3,300 -360 Descending Cleveland Center
10:19PM 42.5103 -83.1744 309° West 159 183 3,100 -300 Descending Cleveland Center
10:20PM 42.5425 -83.2239 312° West 158 182 2,800 -300 Descending Cleveland Center
10:21PM 42.5708 -83.2617 316° Northwest 151 174 2,500 -420 Descending Cleveland Center
10:23PM 42.6072 -83.3056 318° Northwest 148 170 2,000 -420 Descending Cleveland Center
10:24PM 42.6333 -83.3433 313° West 138 159 1,700 -300 Descending Cleveland Center
10:25PM 42.6553 -83.3839 306° West 115 132 1,500 -240 Descending Cleveland Center
10:27PM 42.6500 -83.4167 304° West  Level FlightAware Approximate
10:34PM 42.6656 -83.4205 304° West  Level Estimated